Terminal Aerodrome Forecast
Issued by NWS Tampa Bay Area, FL

Home | Current Version | Previous Version | Text Only | Print | Product List | Glossary On
Versions: 1 2 3 4 5 6 7 8 9 10 11 12 13 14 15 16 17
000
FTUS42 KTBW 050535
TAFSRQ
TAF
KSRQ 050535Z 0506/0606 32011KT P6SM SCT020
      TEMPO 0506/0509 BKN020
     FM051500 31013G20KT P6SM SCT040
     FM051800 30017G27KT P6SM SCT040
     FM052300 30013KT P6SM SKC=

USA.gov is the U.S. government's official web portal to all federal, state and local government web resources and services.